createdAt,value
2023-01-13T00:02:34.776Z,0
2023-01-13T00:07:34.657Z,0
2023-01-13T00:12:34.629Z,0
2023-01-13T00:17:34.638Z,0
2023-01-13T00:22:34.946Z,0
2023-01-13T00:27:34.639Z,0
2023-01-13T00:32:36.084Z,0
2023-01-13T00:37:34.624Z,0
2023-01-13T00:42:34.649Z,0
2023-01-13T00:47:34.671Z,0
2023-01-13T00:52:36.743Z,0
2023-01-13T00:57:34.671Z,0
2023-01-13T01:02:34.714Z,0
2023-01-13T01:07:34.690Z,0
2023-01-13T01:12:34.761Z,0
2023-01-13T01:17:35.491Z,0
2023-01-13T01:22:36.345Z,0
2023-01-13T01:27:35.177Z,0
2023-01-13T01:32:34.655Z,0
2023-01-13T01:37:35.072Z,0
2023-01-13T01:42:34.642Z,0
2023-01-13T01:47:34.657Z,0
2023-01-13T01:52:34.693Z,0
2023-01-13T01:57:34.669Z,0
2023-01-13T02:02:36.706Z,0
2023-01-13T02:07:34.671Z,0
2023-01-13T02:12:34.663Z,0
2023-01-13T02:17:34.668Z,0
2023-01-13T02:22:34.656Z,0
2023-01-13T02:27:34.699Z,0
2023-01-13T02:32:34.725Z,0
2023-01-13T02:37:34.721Z,0
2023-01-13T02:42:35.131Z,0
2023-01-13T02:47:35.152Z,0
2023-01-13T02:52:39.700Z,0
2023-01-13T02:57:34.672Z,0
2023-01-13T03:02:34.737Z,0
2023-01-13T03:07:35.817Z,0
2023-01-13T03:12:34.769Z,0
2023-01-13T03:17:35.217Z,0
2023-01-13T03:22:34.725Z,0
2023-01-13T03:27:34.801Z,0
2023-01-13T03:32:34.866Z,0
2023-01-13T03:37:34.726Z,0
2023-01-13T03:42:34.735Z,0
2023-01-13T03:47:34.737Z,0
2023-01-13T03:52:39.477Z,0
2023-01-13T03:57:34.728Z,0
2023-01-13T04:02:34.765Z,0
2023-01-13T04:07:34.820Z,0
2023-01-13T04:12:34.833Z,0
2023-01-13T04:17:35.207Z,0
2023-01-13T04:22:34.713Z,0
2023-01-13T04:27:35.243Z,0
2023-01-13T04:32:35.241Z,0
2023-01-13T04:37:34.777Z,0
2023-01-13T04:42:34.723Z,0
2023-01-13T04:47:35.762Z,0
2023-01-13T04:52:36.530Z,0
2023-01-13T04:57:35.232Z,0
2023-01-13T05:02:34.774Z,0
2023-01-13T05:07:35.860Z,0
2023-01-13T05:12:35.111Z,0
2023-01-13T05:17:36.657Z,0
2023-01-13T05:22:35.044Z,0
2023-01-13T05:27:34.740Z,0
2023-01-13T05:32:34.750Z,0
2023-01-13T05:37:35.798Z,0
2023-01-13T05:42:34.750Z,0
2023-01-13T05:47:34.776Z,0
2023-01-13T05:52:35.732Z,0
2023-01-13T05:57:34.838Z,0
2023-01-13T06:02:34.825Z,0
2023-01-13T06:07:34.789Z,0
2023-01-13T06:12:34.767Z,0
2023-01-13T06:17:34.758Z,0
2023-01-13T06:22:34.752Z,0
2023-01-13T06:27:34.759Z,0
2023-01-13T06:32:34.765Z,0
2023-01-13T06:37:34.788Z,0
2023-01-13T06:42:34.761Z,0
2023-01-13T06:47:35.249Z,0
2023-01-13T06:52:42.839Z,0
2023-01-13T06:57:34.775Z,0
2023-01-13T07:02:34.798Z,0
2023-01-13T07:07:34.792Z,0
2023-01-13T07:12:34.870Z,0
2023-01-13T07:17:34.764Z,0
2023-01-13T07:22:34.770Z,0
2023-01-13T07:27:34.785Z,0
2023-01-13T07:32:34.852Z,0
2023-01-13T07:37:34.783Z,0
2023-01-13T07:42:34.788Z,0
2023-01-13T07:47:34.847Z,265
2023-01-13T07:52:35.247Z,266
2023-01-13T07:57:34.801Z,268
2023-01-13T08:02:34.860Z,271
2023-01-13T08:07:34.859Z,274
2023-01-13T08:12:34.778Z,269
2023-01-13T08:17:34.791Z,271
2023-01-13T08:22:34.803Z,272
2023-01-13T08:27:34.926Z,268
2023-01-13T08:32:34.845Z,273
2023-01-13T08:37:34.834Z,282
2023-01-13T08:42:34.852Z,288
2023-01-13T08:47:34.878Z,311
2023-01-13T08:52:36.555Z,342
2023-01-13T08:57:34.857Z,291
2023-01-13T09:02:34.846Z,281
2023-01-13T09:07:34.839Z,280
2023-01-13T09:12:34.831Z,285
2023-01-13T09:17:34.806Z,284
2023-01-13T09:22:34.802Z,293
2023-01-13T09:27:34.836Z,330
2023-01-13T09:32:34.845Z,360
2023-01-13T09:37:34.811Z,299
2023-01-13T09:42:34.916Z,299
2023-01-13T09:47:34.869Z,287
2023-01-13T09:52:39.656Z,289
2023-01-13T09:57:34.818Z,285
2023-01-13T10:02:34.828Z,276
2023-01-13T10:07:34.822Z,277
2023-01-13T10:12:35.240Z,0
2023-01-13T10:17:34.921Z,0
2023-01-13T10:22:34.811Z,271
2023-01-13T10:27:34.954Z,269
2023-01-13T10:32:34.851Z,268
2023-01-13T10:37:34.835Z,266
2023-01-13T10:42:34.829Z,266
2023-01-13T10:47:34.940Z,267
2023-01-13T10:52:37.992Z,268
2023-01-13T10:57:35.923Z,271
2023-01-13T11:02:34.990Z,280
2023-01-13T11:07:34.981Z,280
2023-01-13T11:12:34.827Z,281
2023-01-13T11:17:36.147Z,287
2023-01-13T11:22:34.879Z,291
2023-01-13T11:27:36.386Z,282
2023-01-13T11:32:34.904Z,284
2023-01-13T11:37:34.919Z,293
2023-01-13T11:42:37.883Z,295
2023-01-13T11:47:34.881Z,299
2023-01-13T11:52:38.566Z,296
2023-01-13T11:57:34.857Z,289
2023-01-13T12:02:35.355Z,275
2023-01-13T12:07:34.948Z,289
2023-01-13T12:12:34.884Z,285
2023-01-13T12:17:34.882Z,286
2023-01-13T12:22:37.867Z,307
2023-01-13T12:27:34.898Z,314
2023-01-13T12:32:35.083Z,326
2023-01-13T12:37:34.936Z,316
2023-01-13T12:42:34.863Z,334
2023-01-13T12:47:34.881Z,310
2023-01-13T12:52:39.531Z,306
2023-01-13T12:57:34.865Z,285
2023-01-13T13:02:34.929Z,278
2023-01-13T13:07:34.958Z,271
2023-01-13T13:12:34.910Z,271
2023-01-13T13:17:34.877Z,277
2023-01-13T13:22:40.745Z,269
2023-01-13T13:27:36.063Z,270
2023-01-13T13:32:34.886Z,295
2023-01-13T13:37:35.491Z,288
2023-01-13T13:42:34.960Z,284
2023-01-13T13:47:34.843Z,278
2023-01-13T13:52:39.998Z,282
2023-01-13T13:57:34.883Z,278
2023-01-13T14:02:35.010Z,292
2023-01-13T14:07:34.905Z,276
2023-01-13T14:12:34.857Z,275
2023-01-13T14:17:34.842Z,274
2023-01-13T14:22:34.855Z,273
2023-01-13T14:27:35.826Z,272
2023-01-13T14:32:34.885Z,271
2023-01-13T14:37:34.808Z,272
2023-01-13T14:42:34.810Z,274
2023-01-13T14:47:34.797Z,270
2023-01-13T14:52:41.869Z,271
2023-01-13T14:57:35.289Z,267
2023-01-13T15:02:35.811Z,273
2023-01-13T15:07:34.863Z,267
2023-01-13T15:12:35.797Z,271
2023-01-13T15:17:34.797Z,265
2023-01-13T15:22:34.800Z,265
2023-01-13T15:27:34.833Z,0
2023-01-13T15:32:34.846Z,0
2023-01-13T15:37:34.814Z,0
2023-01-13T15:42:35.873Z,0
2023-01-13T15:47:34.812Z,0
2023-01-13T15:52:53.816Z,0
2023-01-13T15:57:34.836Z,0
2023-01-13T16:02:34.861Z,0
2023-01-13T16:07:34.919Z,0
2023-01-13T16:12:37.934Z,0
2023-01-13T16:17:35.419Z,0
2023-01-13T16:22:34.852Z,0
2023-01-13T16:27:34.848Z,0
2023-01-13T16:32:34.835Z,0
2023-01-13T16:37:34.869Z,0
2023-01-13T16:42:34.890Z,0
2023-01-13T16:47:34.875Z,0
2023-01-13T16:52:35.111Z,0
2023-01-13T16:57:34.891Z,0
2023-01-13T17:02:34.910Z,0
2023-01-13T17:07:35.939Z,0
2023-01-13T17:12:34.967Z,0
2023-01-13T17:17:34.913Z,0
2023-01-13T17:22:34.934Z,0
2023-01-13T17:27:35.258Z,0
2023-01-13T17:32:34.916Z,0
2023-01-13T17:37:34.949Z,0
2023-01-13T17:42:35.091Z,0
2023-01-13T17:47:34.930Z,0
2023-01-13T17:52:41.103Z,0
2023-01-13T17:57:34.935Z,0
2023-01-13T18:02:34.942Z,0
2023-01-13T18:07:34.959Z,0
2023-01-13T18:12:34.911Z,0
2023-01-13T18:17:34.917Z,0
2023-01-13T18:28:13.283Z,0
2023-01-13T18:32:34.974Z,0
2023-01-13T18:37:34.934Z,0
2023-01-13T18:42:34.941Z,0
2023-01-13T18:47:34.945Z,0
2023-01-13T18:52:34.989Z,0
2023-01-13T18:57:38.023Z,0
2023-01-13T19:02:35.272Z,0
2023-01-13T19:07:36.069Z,0
2023-01-13T19:12:35.022Z,0
2023-01-13T19:17:34.970Z,0
2023-01-13T19:22:35.020Z,0
2023-01-13T19:27:35.188Z,0
2023-01-13T19:32:34.960Z,0
2023-01-13T19:37:34.961Z,0
2023-01-13T19:42:34.986Z,0
2023-01-13T19:47:36.261Z,0
2023-01-13T19:52:35.038Z,0
2023-01-13T19:57:35.066Z,0
2023-01-13T20:02:35.029Z,0
2023-01-13T20:07:35.111Z,0
2023-01-13T20:12:35.066Z,0
2023-01-13T20:17:35.030Z,0
2023-01-13T20:22:35.029Z,0
2023-01-13T20:27:35.215Z,0
2023-01-13T20:32:35.032Z,0
2023-01-13T20:37:35.022Z,0
2023-01-13T20:42:35.090Z,0
2023-01-13T20:47:35.010Z,0
2023-01-13T20:52:35.016Z,0
2023-01-13T20:57:35.055Z,0
2023-01-13T21:02:34.996Z,0
2023-01-13T21:07:34.944Z,0
2023-01-13T21:12:34.963Z,0
2023-01-13T21:17:35.019Z,0
2023-01-13T21:22:34.985Z,0
2023-01-13T21:27:35.059Z,0
2023-01-13T21:32:35.005Z,0
2023-01-13T21:37:35.031Z,0
2023-01-13T21:42:34.999Z,0
2023-01-13T21:47:35.033Z,0
2023-01-13T21:52:35.125Z,0
2023-01-13T21:57:34.998Z,0
2023-01-13T22:02:35.253Z,0
2023-01-13T22:07:35.003Z,0
2023-01-13T22:12:35.019Z,0
2023-01-13T22:17:35.066Z,0
2023-01-13T22:22:34.969Z,0
2023-01-13T22:27:35.701Z,0
2023-01-13T22:32:34.977Z,0
2023-01-13T22:37:35.179Z,0
2023-01-13T22:42:35.237Z,0
2023-01-13T22:47:36.039Z,0
2023-01-13T22:52:37.909Z,0
2023-01-13T22:57:47.158Z,0
2023-01-13T23:02:35.040Z,0
2023-01-13T23:07:36.086Z,0
2023-01-13T23:12:35.200Z,0
2023-01-13T23:17:35.023Z,0
2023-01-13T23:22:35.252Z,0
2023-01-13T23:27:35.113Z,0
2023-01-13T23:32:34.985Z,0
2023-01-13T23:37:35.010Z,0
2023-01-13T23:52:35.103Z,0
2023-01-13T23:57:35.056Z,0
